createdAt,value
2022-12-24T00:02:34.865Z,77.71
2022-12-24T00:05:16.982Z,76.17
2022-12-24T00:08:05.725Z,77.03
2022-12-24T00:10:59.031Z,78.18
2022-12-24T00:13:41.690Z,76.53
2022-12-24T00:16:30.874Z,78.25
2022-12-24T00:19:19.677Z,77.49
2022-12-24T00:22:01.843Z,77.71
2022-12-24T00:24:50.741Z,77.71
2022-12-24T00:27:39.659Z,78.27
2022-12-24T00:30:28.691Z,77.59
2022-12-24T00:33:11.540Z,77.27
2022-12-24T00:36:02.189Z,78.16
2022-12-24T00:38:44.536Z,77.69
2022-12-24T00:41:32.971Z,78.06
2022-12-24T00:44:19.681Z,77.40
2022-12-24T00:47:11.978Z,76.96
2022-12-24T00:49:54.676Z,78.09
2022-12-24T00:52:37.021Z,78.14
2022-12-24T00:55:25.631Z,77.73
2022-12-24T00:58:20.518Z,78.00
2022-12-24T01:01:09.681Z,78.00
2022-12-24T01:03:58.688Z,78.04
2022-12-24T01:06:41.072Z,77.74
2022-12-24T01:09:29.616Z,77.44
2022-12-24T01:12:18.585Z,77.76
2022-12-24T01:15:07.536Z,78.01
2022-12-24T01:17:55.944Z,78.35
2022-12-24T01:20:40.535Z,78.76
2022-12-24T01:23:28.969Z,79.60
2022-12-24T01:26:12.711Z,79.54
2022-12-24T01:28:55.408Z,79.65
2022-12-24T01:31:44.738Z,79.27
2022-12-24T01:34:33.997Z,78.26
2022-12-24T01:37:15.742Z,79.40
2022-12-24T01:40:17.662Z,80.02
2022-12-24T01:43:25.548Z,80.47
2022-12-24T01:46:40.631Z,79.66
2022-12-24T01:49:24.987Z,79.32
2022-12-24T01:52:18.702Z,78.41
2022-12-24T01:55:24.659Z,79.12
2022-12-24T01:58:22.749Z,78.21
2022-12-24T02:01:06.023Z,77.40
2022-12-24T02:03:54.740Z,78.52
2022-12-24T02:06:43.571Z,78.83
2022-12-24T02:09:32.599Z,79.35
2022-12-24T02:12:21.554Z,78.61
2022-12-24T02:15:11.649Z,78.41
2022-12-24T02:18:08.506Z,78.33
2022-12-24T02:21:15.695Z,78.20
2022-12-24T02:24:31.694Z,78.08
2022-12-24T02:27:24.971Z,79.00
2022-12-24T02:30:50.180Z,79.23
2022-12-24T02:33:54.886Z,78.75
2022-12-24T02:36:48.537Z,79.63
2022-12-24T02:40:01.157Z,79.89
2022-12-24T02:42:52.694Z,79.71
2022-12-24T02:45:39.986Z,79.13
2022-12-24T02:48:30.653Z,79.04
2022-12-24T02:51:18.968Z,78.50
2022-12-24T02:54:07.655Z,79.03
2022-12-24T02:57:06.500Z,79.13
2022-12-24T03:00:10.634Z,79.28
2022-12-24T03:03:26.922Z,78.60
2022-12-24T03:06:29.599Z,79.08
2022-12-24T03:09:42.908Z,78.67
2022-12-24T03:12:38.652Z,77.87
2022-12-24T03:15:25.274Z,78.71
2022-12-24T03:18:17.642Z,78.03
2022-12-24T03:21:09.030Z,78.59
2022-12-24T03:23:58.660Z,78.60
2022-12-24T03:26:48.920Z,78.15
2022-12-24T03:29:30.479Z,78.70
2022-12-24T03:32:12.809Z,78.24
2022-12-24T03:35:01.659Z,78.25
2022-12-24T03:37:43.808Z,77.44
2022-12-24T03:40:32.557Z,77.18
2022-12-24T03:43:20.907Z,78.10
2022-12-24T03:46:03.645Z,79.57
2022-12-24T03:48:51.893Z,80.86
2022-12-24T03:51:34.646Z,79.46
2022-12-24T03:54:22.999Z,78.24
2022-12-24T03:57:05.656Z,77.80
2022-12-24T04:00:00.525Z,77.49
2022-12-24T04:02:51.945Z,76.71
2022-12-24T04:05:40.562Z,76.07
2022-12-24T04:08:28.857Z,76.33
2022-12-24T04:11:13.692Z,77.44
2022-12-24T04:13:55.802Z,77.52
2022-12-24T04:16:44.800Z,76.82
2022-12-24T04:19:27.002Z,75.13
2022-12-24T04:22:15.472Z,75.75
2022-12-24T04:24:57.809Z,75.51
2022-12-24T04:27:46.622Z,75.62
2022-12-24T04:30:28.869Z,75.30
2022-12-24T04:33:17.578Z,76.19
2022-12-24T04:36:06.895Z,75.40
2022-12-24T04:38:49.892Z,76.73
2022-12-24T04:41:37.893Z,76.35
2022-12-24T04:44:19.685Z,74.91
2022-12-24T04:47:07.853Z,76.72
2022-12-24T04:49:50.533Z,75.87
2022-12-24T04:52:39.620Z,75.17
2022-12-24T04:55:21.922Z,75.86
2022-12-24T04:58:10.625Z,73.84
2022-12-24T05:00:59.958Z,73.28
2022-12-24T05:03:42.631Z,73.67
2022-12-24T05:06:34.931Z,73.10
2022-12-24T05:09:17.549Z,72.69
2022-12-24T05:12:06.595Z,73.71
2022-12-24T05:14:48.912Z,72.95
2022-12-24T05:17:37.590Z,73.30
2022-12-24T05:20:20.038Z,72.80
2022-12-24T05:23:26.596Z,73.44
2022-12-24T05:26:30.857Z,72.43
2022-12-24T05:29:20.496Z,71.43
2022-12-24T05:32:03.068Z,70.60
2022-12-24T05:34:51.671Z,71.14
2022-12-24T05:37:33.837Z,70.75
2022-12-24T05:40:22.626Z,70.72
2022-12-24T05:43:04.896Z,73.83
2022-12-24T05:45:53.635Z,72.37
2022-12-24T05:48:35.851Z,72.00
2022-12-24T05:51:29.543Z,72.39
2022-12-24T05:54:11.910Z,72.36
2022-12-24T05:57:00.556Z,73.47
2022-12-24T05:59:49.466Z,71.61
2022-12-24T06:02:37.887Z,71.91
2022-12-24T06:05:20.602Z,71.44
2022-12-24T06:08:08.979Z,72.80
2022-12-24T06:10:51.602Z,71.58
2022-12-24T06:13:34.257Z,71.89
2022-12-24T06:16:28.685Z,72.11
2022-12-24T06:19:10.742Z,70.66
2022-12-24T06:21:59.549Z,70.78
2022-12-24T06:24:48.538Z,70.69
2022-12-24T06:27:31.015Z,69.95
2022-12-24T06:30:19.652Z,70.21
2022-12-24T06:33:02.054Z,69.88
2022-12-24T06:35:50.504Z,69.86
2022-12-24T06:38:39.517Z,68.64
2022-12-24T06:41:29.492Z,67.99
2022-12-24T06:44:18.948Z,67.92
2022-12-24T06:47:06.911Z,68.24
2022-12-24T06:49:48.602Z,69.06
2022-12-24T06:52:37.635Z,68.97
2022-12-24T06:55:26.630Z,68.17
2022-12-24T06:58:21.485Z,66.53
2022-12-24T07:01:14.964Z,65.87
2022-12-24T07:03:57.541Z,66.85
2022-12-24T07:06:45.866Z,64.81
2022-12-24T07:09:27.573Z,64.96
2022-12-24T07:12:10.090Z,64.79
2022-12-24T07:14:58.548Z,64.88
2022-12-24T07:17:49.579Z,65.30
2022-12-24T07:20:32.072Z,66.53
2022-12-24T07:23:20.577Z,63.58
2022-12-24T07:26:03.702Z,64.88
2022-12-24T07:28:52.525Z,63.71
2022-12-24T07:31:35.153Z,65.44
2022-12-24T07:34:23.611Z,64.90
2022-12-24T07:37:05.839Z,63.60
2022-12-24T07:39:54.573Z,64.49
2022-12-24T07:42:37.253Z,64.03
2022-12-24T07:45:26.903Z,64.36
2022-12-24T07:48:08.849Z,63.88
2022-12-24T07:50:58.627Z,63.00
2022-12-24T07:53:41.201Z,62.87
2022-12-24T07:56:29.481Z,63.44
2022-12-24T07:59:28.660Z,62.93
2022-12-24T08:02:19.174Z,63.54
2022-12-24T08:05:01.593Z,63.08
2022-12-24T08:07:51.004Z,63.40
2022-12-24T08:10:33.477Z,63.37
2022-12-24T08:13:23.693Z,64.13
2022-12-24T08:16:07.045Z,62.86
2022-12-24T08:18:55.675Z,62.42
2022-12-24T08:21:37.884Z,63.83
2022-12-24T08:24:26.597Z,64.35
2022-12-24T08:27:08.908Z,64.42
2022-12-24T08:29:57.474Z,63.82
2022-12-24T08:32:47.639Z,63.82
2022-12-24T08:35:37.035Z,62.72
2022-12-24T08:38:19.444Z,63.06
2022-12-24T08:41:09.206Z,62.54
2022-12-24T08:43:58.538Z,61.24
2022-12-24T08:46:47.529Z,61.87
2022-12-24T08:49:36.600Z,61.02
2022-12-24T08:52:18.952Z,61.76
2022-12-24T08:55:07.580Z,61.56
2022-12-24T08:57:50.030Z,61.80
2022-12-24T09:00:39.542Z,61.29
2022-12-24T09:03:27.373Z,61.64
2022-12-24T09:06:17.629Z,61.58
2022-12-24T09:08:59.963Z,60.85
2022-12-24T09:11:48.708Z,61.79
2022-12-24T09:14:31.000Z,60.88
2022-12-24T09:17:20.571Z,61.66
2022-12-24T09:20:03.066Z,59.87
2022-12-24T09:22:51.659Z,60.54
2022-12-24T09:25:33.794Z,61.28
2022-12-24T09:28:22.561Z,62.00
2022-12-24T09:31:10.323Z,61.03
2022-12-24T09:33:59.592Z,62.08
2022-12-24T09:36:49.493Z,61.45
2022-12-24T09:39:31.773Z,61.46
2022-12-24T09:42:39.555Z,61.89
2022-12-24T09:45:31.451Z,62.54
2022-12-24T09:48:31.419Z,62.80
2022-12-24T09:51:37.829Z,62.49
2022-12-24T09:54:49.274Z,61.09
2022-12-24T09:57:45.455Z,62.25
2022-12-24T10:00:52.350Z,61.43
2022-12-24T10:03:41.511Z,61.32
2022-12-24T10:06:35.956Z,61.82
2022-12-24T10:09:42.564Z,62.39
2022-12-24T10:13:07.248Z,62.74
2022-12-24T10:16:15.643Z,61.58
2022-12-24T10:19:09.975Z,62.43
2022-12-24T10:22:12.552Z,62.98
2022-12-24T10:25:45.586Z,62.48
2022-12-24T10:28:50.420Z,62.13
2022-12-24T10:31:45.489Z,62.84
2022-12-24T10:34:41.453Z,62.78
2022-12-24T10:37:31.893Z,62.72
2022-12-24T10:40:43.412Z,63.17
2022-12-24T10:43:42.496Z,61.83
2022-12-24T10:46:40.931Z,62.84
2022-12-24T10:49:33.576Z,62.69
2022-12-24T10:52:36.814Z,63.34
2022-12-24T10:55:27.614Z,63.45
2022-12-24T10:58:18.309Z,64.60
2022-12-24T11:01:09.109Z,63.64
2022-12-24T11:04:31.985Z,63.96
2022-12-24T11:07:26.539Z,64.66
2022-12-24T11:10:16.572Z,64.08
2022-12-24T11:13:35.129Z,64.24
2022-12-24T11:16:32.693Z,65.19
2022-12-24T11:19:25.888Z,64.75
2022-12-24T11:22:38.450Z,65.85
2022-12-24T11:25:40.562Z,65.21
2022-12-24T11:28:35.568Z,65.46
2022-12-24T11:31:30.346Z,65.20
2022-12-24T11:34:45.499Z,65.65
2022-12-24T11:37:32.878Z,66.86
2022-12-24T11:40:34.476Z,66.35
2022-12-24T11:43:45.334Z,66.91
2022-12-24T11:46:45.666Z,66.90
2022-12-24T11:49:37.526Z,66.88
2022-12-24T11:52:20.099Z,67.91
2022-12-24T11:55:16.346Z,66.37
2022-12-24T11:58:12.381Z,66.04
2022-12-24T12:01:17.703Z,66.32
2022-12-24T12:04:04.948Z,66.73
2022-12-24T12:07:15.109Z,66.96
2022-12-24T12:10:15.814Z,67.54
2022-12-24T12:13:27.485Z,68.31
2022-12-24T12:16:56.695Z,68.16
2022-12-24T12:19:46.575Z,69.16
2022-12-24T12:22:48.587Z,69.66
2022-12-24T12:25:40.910Z,70.17
2022-12-24T12:28:32.571Z,69.87
2022-12-24T12:31:31.879Z,70.52
2022-12-24T12:34:23.437Z,70.21
2022-12-24T12:37:14.848Z,70.41
2022-12-24T12:40:04.641Z,69.85
2022-12-24T12:43:13.910Z,71.01
2022-12-24T12:46:06.481Z,71.42
2022-12-24T12:49:06.034Z,69.82
2022-12-24T12:51:50.797Z,70.27
2022-12-24T12:55:23.915Z,69.87
2022-12-24T12:58:12.549Z,71.36
2022-12-24T13:01:07.885Z,70.16
2022-12-24T13:03:59.525Z,70.54
2022-12-24T13:07:12.732Z,70.62
2022-12-24T13:10:22.541Z,70.93
2022-12-24T13:13:35.060Z,71.49
2022-12-24T13:16:46.649Z,71.62
2022-12-24T13:20:11.968Z,73.24
2022-12-24T13:23:18.483Z,72.13
2022-12-24T13:26:21.066Z,72.46
2022-12-24T13:29:02.461Z,72.31
2022-12-24T13:31:44.734Z,73.22
2022-12-24T13:34:52.409Z,73.29
2022-12-24T13:37:41.837Z,73.66
2022-12-24T13:40:34.468Z,74.21
2022-12-24T13:43:22.843Z,74.37
2022-12-24T13:46:06.611Z,74.37
2022-12-24T13:48:54.778Z,74.02
2022-12-24T13:51:37.576Z,74.22
2022-12-24T13:54:32.773Z,74.88
2022-12-24T13:57:55.481Z,74.54
2022-12-24T14:00:46.869Z,74.91
2022-12-24T14:03:50.405Z,74.79
2022-12-24T14:06:37.812Z,75.18
2022-12-24T14:09:32.580Z,75.45
2022-12-24T14:12:17.548Z,74.30
2022-12-24T14:15:08.462Z,75.13
2022-12-24T14:17:57.789Z,74.47
2022-12-24T14:20:41.530Z,74.42
2022-12-24T14:23:33.747Z,74.96
2022-12-24T14:26:29.845Z,74.74
2022-12-24T14:29:34.917Z,74.08
2022-12-24T14:32:25.413Z,74.31
2022-12-24T14:35:21.595Z,73.44
2022-12-24T14:38:09.833Z,74.42
2022-12-24T14:41:29.413Z,73.72
2022-12-24T14:44:38.827Z,74.56
2022-12-24T14:47:51.619Z,74.91
2022-12-24T14:50:59.851Z,75.00
2022-12-24T14:54:03.548Z,74.08
2022-12-24T14:56:51.798Z,74.99
2022-12-24T14:59:36.469Z,74.95
2022-12-24T15:02:58.508Z,75.49
2022-12-24T15:05:40.764Z,75.12
2022-12-24T15:08:39.459Z,75.52
2022-12-24T15:11:28.754Z,75.24
2022-12-24T15:14:20.508Z,75.46
2022-12-24T15:17:11.899Z,74.49
2022-12-24T15:20:01.529Z,75.29
2022-12-24T15:22:44.346Z,76.14
2022-12-24T15:25:39.353Z,75.88
2022-12-24T15:28:30.819Z,75.36
2022-12-24T15:31:21.552Z,76.23
2022-12-24T15:34:05.831Z,75.84
2022-12-24T15:36:54.354Z,76.51
2022-12-24T15:39:37.703Z,75.90
2022-12-24T15:42:34.442Z,76.21
2022-12-24T15:45:28.747Z,75.95
2022-12-24T15:48:16.458Z,75.66
2022-12-24T15:51:10.773Z,76.03
2022-12-24T15:53:53.474Z,77.10
2022-12-24T15:56:44.917Z,76.73
2022-12-24T15:59:29.441Z,76.30
2022-12-24T16:02:50.576Z,75.84
2022-12-24T16:05:35.804Z,76.39
2022-12-24T16:08:24.511Z,76.35
2022-12-24T16:11:34.796Z,77.30
2022-12-24T16:14:28.445Z,75.85
2022-12-24T16:17:10.703Z,77.15
2022-12-24T16:20:02.403Z,76.79
2022-12-24T16:22:46.753Z,76.87
2022-12-24T16:25:36.509Z,76.32
2022-12-24T16:28:23.564Z,76.64
2022-12-24T16:31:12.491Z,76.51
2022-12-24T16:33:55.800Z,77.30
2022-12-24T16:36:44.461Z,76.73
2022-12-24T16:39:33.719Z,76.77
2022-12-24T16:42:40.467Z,77.19
2022-12-24T16:45:28.752Z,77.28
2022-12-24T16:48:14.486Z,76.79
2022-12-24T16:51:03.384Z,76.81
2022-12-24T16:53:45.840Z,76.58
2022-12-24T16:56:34.373Z,77.18
2022-12-24T16:59:28.784Z,77.82
2022-12-24T17:02:21.857Z,77.86
2022-12-24T17:05:10.434Z,77.64
2022-12-24T17:07:59.475Z,78.03
2022-12-24T17:10:42.776Z,77.28
2022-12-24T17:13:24.506Z,77.63
2022-12-24T17:16:15.340Z,77.27
2022-12-24T17:18:59.500Z,77.92
2022-12-24T17:21:41.975Z,78.35
2022-12-24T17:24:30.494Z,76.43
2022-12-24T17:27:19.694Z,77.50
2022-12-24T17:30:02.416Z,77.03
2022-12-24T17:32:51.918Z,77.83
2022-12-24T17:35:33.374Z,76.96
2022-12-24T17:38:22.433Z,76.56
2022-12-24T17:41:17.881Z,77.26
2022-12-24T17:44:06.373Z,77.10
2022-12-24T17:46:56.487Z,76.67
2022-12-24T17:49:38.810Z,77.41
2022-12-24T17:52:27.440Z,76.96
2022-12-24T17:55:17.771Z,77.35
2022-12-24T17:58:00.395Z,77.21
2022-12-24T18:00:50.828Z,76.86
2022-12-24T18:03:33.435Z,75.79
2022-12-24T18:06:22.756Z,77.18
2022-12-24T18:09:05.297Z,77.32
2022-12-24T18:11:47.688Z,76.93
2022-12-24T18:14:36.410Z,77.09
2022-12-24T18:17:18.810Z,77.42
2022-12-24T18:20:07.494Z,76.58
2022-12-24T18:22:50.621Z,76.96
2022-12-24T18:25:39.465Z,77.53
2022-12-24T18:28:28.300Z,77.22
2022-12-24T18:31:16.849Z,76.68
2022-12-24T18:34:05.403Z,77.03
2022-12-24T18:36:54.527Z,76.97
2022-12-24T18:39:44.369Z,76.85
2022-12-24T18:42:26.962Z,77.24
2022-12-24T18:45:15.476Z,77.71
2022-12-24T18:47:57.847Z,77.85
2022-12-24T18:50:48.447Z,78.08
2022-12-24T18:53:30.830Z,77.58
2022-12-24T18:56:22.511Z,77.25
2022-12-24T18:59:07.835Z,77.39
2022-12-24T19:01:56.620Z,77.18
2022-12-24T19:04:46.358Z,77.78
2022-12-24T19:07:35.974Z,78.15
2022-12-24T19:10:18.497Z,77.49
2022-12-24T19:13:07.474Z,77.63
2022-12-24T19:15:56.516Z,77.87
2022-12-24T19:18:45.453Z,77.90
2022-12-24T19:21:27.753Z,77.52
2022-12-24T19:24:18.307Z,76.94
2022-12-24T19:27:01.465Z,76.79
2022-12-24T19:29:50.447Z,77.19
2022-12-24T19:32:32.915Z,77.50
2022-12-24T19:35:21.357Z,77.66
2022-12-24T19:38:03.706Z,78.28
2022-12-24T19:40:52.373Z,78.74
2022-12-24T19:43:43.789Z,78.47
2022-12-24T19:46:37.280Z,78.57
2022-12-24T19:49:26.885Z,77.86
2022-12-24T19:52:08.499Z,77.63
2022-12-24T19:54:50.753Z,77.77
2022-12-24T19:57:39.446Z,77.53
2022-12-24T20:00:28.346Z,78.30
2022-12-24T20:03:10.880Z,77.91
2022-12-24T20:06:02.421Z,78.74
2022-12-24T20:08:46.698Z,78.84
2022-12-24T20:11:36.412Z,78.57
2022-12-24T20:14:19.796Z,77.82
2022-12-24T20:17:08.514Z,77.90
2022-12-24T20:19:50.689Z,78.87
2022-12-24T20:22:39.490Z,76.86
2022-12-24T20:25:21.901Z,78.27
2022-12-24T20:28:10.433Z,78.86
2022-12-24T20:30:59.365Z,78.84
2022-12-24T20:33:42.975Z,79.32
2022-12-24T20:36:33.375Z,79.48
2022-12-24T20:39:15.699Z,78.60
2022-12-24T20:42:04.518Z,79.46
2022-12-24T20:44:52.649Z,79.22
2022-12-24T20:47:35.397Z,79.28
2022-12-24T20:50:26.449Z,80.02
2022-12-24T20:53:09.479Z,79.96
2022-12-24T20:56:02.000Z,80.44
2022-12-24T20:58:43.498Z,81.15
2022-12-24T21:01:27.731Z,81.18
2022-12-24T21:04:18.328Z,81.48
2022-12-24T21:07:07.311Z,82.18
2022-12-24T21:09:49.687Z,82.25
2022-12-24T21:12:56.382Z,82.86
2022-12-24T21:15:48.180Z,81.92
2022-12-24T21:18:37.347Z,83.34
2022-12-24T21:21:19.734Z,81.62
2022-12-24T21:24:08.359Z,82.09
2022-12-24T21:26:50.770Z,81.81
2022-12-24T21:29:39.485Z,82.54
2022-12-24T21:32:28.372Z,82.38
2022-12-24T21:35:18.720Z,82.35
2022-12-24T21:38:01.440Z,81.80
2022-12-24T21:40:49.640Z,81.73
2022-12-24T21:43:39.271Z,83.02
2022-12-24T21:46:34.457Z,84.11
2022-12-24T21:49:34.672Z,83.78
2022-12-24T21:52:23.477Z,82.79
2022-12-24T21:55:12.753Z,83.00
2022-12-24T21:58:00.691Z,83.31
2022-12-24T22:00:43.598Z,83.43
2022-12-24T22:03:32.527Z,83.88
2022-12-24T22:06:34.469Z,84.47
2022-12-24T22:09:43.443Z,84.34
2022-12-24T22:12:33.151Z,83.49
2022-12-24T22:15:16.244Z,83.27
2022-12-24T22:18:04.704Z,83.80
2022-12-24T22:20:47.409Z,83.40
2022-12-24T22:23:41.885Z,83.44
2022-12-24T22:26:26.469Z,82.71
2022-12-24T22:29:15.794Z,82.59
2022-12-24T22:31:57.574Z,82.62
2022-12-24T22:34:47.503Z,82.50
2022-12-24T22:37:30.418Z,82.45
2022-12-24T22:40:19.702Z,83.18
2022-12-24T22:43:02.461Z,83.71
2022-12-24T22:45:58.397Z,83.82
2022-12-24T22:48:49.735Z,84.95
2022-12-24T22:51:32.363Z,84.04
2022-12-24T22:54:14.622Z,84.18
2022-12-24T22:57:03.363Z,84.40
2022-12-24T22:59:51.681Z,84.83
2022-12-24T23:02:35.475Z,84.69
2022-12-24T23:05:24.737Z,84.77
2022-12-24T23:08:07.383Z,84.91
2022-12-24T23:10:55.702Z,85.01
2022-12-24T23:13:56.379Z,84.20
2022-12-24T23:16:51.424Z,84.99
2022-12-24T23:19:41.413Z,84.86
2022-12-24T23:22:23.643Z,85.38
2022-12-24T23:25:12.372Z,85.60
2022-12-24T23:27:54.606Z,85.56
2022-12-24T23:30:43.368Z,86.19
2022-12-24T23:33:25.718Z,85.45
2022-12-24T23:36:15.449Z,85.83
2022-12-24T23:39:05.290Z,85.42
2022-12-24T23:41:54.441Z,85.27
2022-12-24T23:44:36.626Z,85.08
2022-12-24T23:47:26.360Z,85.50
2022-12-24T23:50:08.720Z,86.39
2022-12-24T23:52:57.388Z,84.62
2022-12-24T23:55:46.459Z,84.99
2022-12-24T23:58:36.713Z,85.68
